Time;durP1;ratioP1;P1;durP2;ratioP2;P2;SDS_P1;SDS_P2;PMS_P1;PMS_P2;Temp;Humidity;BMP_temperature;BMP_pressure;BME280_temperature;BME280_humidity;BME280_pressure;Samples;Min_cycle;Max_cycle;Signal;HPM_P1;HPM_P2
2022/01/26 00:00:57;;;;;;;;;;;-2.80;99.90;;;;;;5030827;28;20425;-50
2022/01/26 00:06:13;;;;;;;;;;;-2.90;99.90;;;;;;5054727;28;20347;-50
2022/01/26 00:08:40;;;;;;;;;;;-3.00;99.90;;;;;;5059993;28;19924;-50
2022/01/26 00:11:09;;;;;;;;;;;-3.00;99.90;;;;;;5055171;28;20379;-50
2022/01/26 00:13:35;;;;;;;;;;;-2.90;99.90;;;;;;5057285;28;19924;-50
2022/01/26 00:16:05;;;;;;;;;;;-2.90;99.90;;;;;;5081153;28;19928;-50
2022/01/26 00:18:35;;;;;;;;;;;-2.90;99.90;;;;;;5062092;28;19925;-50
2022/01/26 00:21:08;;;;;;;;;;;-2.80;99.90;;;;;;5070681;28;19929;-50
2022/01/26 00:26:30;;;;;;;;;;;-2.70;99.90;;;;;;5075040;28;19927;-50
2022/01/26 00:29:08;;;;;;;;;;;-2.80;99.90;;;;;;5064542;28;19970;-50
2022/01/26 00:39:50;;;;;;;;;;;-2.70;99.90;;;;;;5070879;28;20009;-50
2022/01/26 00:42:18;;;;;;;;;;;-2.60;99.90;;;;;;5072134;28;20314;-50
2022/01/26 00:44:48;;;;;;;;;;;-2.60;99.90;;;;;;5094846;28;19928;-50
2022/01/26 00:47:15;;;;;;;;;;;-2.70;99.90;;;;;;5066152;28;21528;-50
2022/01/26 00:49:42;;;;;;;;;;;-2.70;99.90;;;;;;5073917;28;19925;-50
2022/01/26 00:52:13;;;;;;;;;;;-2.80;99.90;;;;;;5069001;28;19932;-50
2022/01/26 00:54:39;;;;;;;;;;;-2.80;99.90;;;;;;5065351;28;19931;-50
2022/01/26 00:57:06;;;;;;;;;;;-2.90;99.90;;;;;;5062980;28;19924;-50
2022/01/26 00:59:34;;;;;;;;;;;-3.00;99.90;;;;;;5053687;28;19925;-51
2022/01/26 01:02:01;;;;;;;;;;;-3.10;99.90;;;;;;5065021;28;19947;-50
2022/01/26 01:04:28;;;;;;;;;;;-3.20;99.90;;;;;;5060878;28;19933;-50
2022/01/26 01:06:59;;;;;;;;;;;-3.30;99.90;;;;;;5063728;28;20397;-50
2022/01/26 01:09:31;;;;;;;;;;;-3.20;99.90;;;;;;5058083;28;19933;-50
2022/01/26 01:11:58;;;;;;;;;;;-3.10;99.90;;;;;;5065499;28;20011;-50
2022/01/26 01:14:24;;;;;;;;;;;-3.00;99.90;;;;;;5054563;28;19980;-50
2022/01/26 01:16:56;;;;;;;;;;;-3.10;99.90;;;;;;5073105;28;19933;-50
2022/01/26 01:19:33;;;;;;;;;;;-3.10;99.90;;;;;;5058178;28;20003;-50
2022/01/26 01:27:59;;;;;;;;;;;-3.30;99.90;;;;;;5055933;28;20443;-50
2022/01/26 01:30:33;;;;;;;;;;;-3.30;99.90;;;;;;5060496;28;19924;-50
2022/01/26 01:33:10;;;;;;;;;;;-3.40;99.90;;;;;;5077649;28;19994;-50
2022/01/26 01:35:38;;;;;;;;;;;-3.30;99.90;;;;;;5085783;28;20333;-50
2022/01/26 01:38:12;;;;;;;;;;;-3.30;99.90;;;;;;5069465;28;19939;-50
2022/01/26 01:40:39;;;;;;;;;;;-3.00;99.90;;;;;;5074152;28;19925;-50
2022/01/26 01:43:06;;;;;;;;;;;-3.00;99.90;;;;;;5059889;28;19928;-50
2022/01/26 01:45:34;;;;;;;;;;;-2.90;99.90;;;;;;5074004;28;19978;-50
2022/01/26 01:48:02;;;;;;;;;;;-2.90;99.90;;;;;;5077547;28;19931;-50
2022/01/26 01:50:29;;;;;;;;;;;-3.00;99.90;;;;;;5078465;28;19948;-50
2022/01/26 01:53:01;;;;;;;;;;;-3.00;99.90;;;;;;5078561;28;19986;-50
2022/01/26 01:55:29;;;;;;;;;;;-3.10;99.90;;;;;;5057688;28;19928;-50
2022/01/26 01:57:56;;;;;;;;;;;-3.20;99.90;;;;;;5058433;28;20406;-50
2022/01/26 02:00:23;;;;;;;;;;;-3.20;99.90;;;;;;5057944;28;19925;-50
2022/01/26 02:02:50;;;;;;;;;;;-3.30;99.90;;;;;;5077220;28;19970;-50
2022/01/26 02:05:18;;;;;;;;;;;-3.30;99.90;;;;;;5078535;28;19928;-50
2022/01/26 02:07:45;;;;;;;;;;;-3.50;99.90;;;;;;5078721;28;20408;-50
2022/01/26 02:10:12;;;;;;;;;;;-3.60;99.90;;;;;;5068074;28;19925;-50
2022/01/26 02:12:43;;;;;;;;;;;-3.60;99.90;;;;;;5070574;28;19924;-50
2022/01/26 02:15:15;;;;;;;;;;;-3.80;99.90;;;;;;5074693;28;19932;-51
2022/01/26 02:18:09;;;;;;;;;;;-3.80;99.90;;;;;;5072179;28;19924;-50
2022/01/26 02:21:00;;;;;;;;;;;-3.80;99.90;;;;;;5057928;28;20389;-50
2022/01/26 02:56:40;;;;;;;;;;;-3.80;99.90;;;;;;5122525;28;20032;-49
2022/01/26 03:01:52;;;;;;;;;;;-3.80;99.90;;;;;;5109453;28;20377;-50
2022/01/26 03:04:27;;;;;;;;;;;-3.80;99.90;;;;;;5113697;28;19934;-50
2022/01/26 03:07:00;;;;;;;;;;;-3.80;99.90;;;;;;5113149;28;19970;-50
2022/01/26 03:09:32;;;;;;;;;;;-3.80;99.90;;;;;;5112212;28;20493;-50
2022/01/26 03:12:01;;;;;;;;;;;-3.80;99.90;;;;;;5110513;28;20019;-50
2022/01/26 03:14:37;;;;;;;;;;;-3.90;99.90;;;;;;5111350;28;19969;-50
2022/01/26 03:17:12;;;;;;;;;;;-3.80;99.90;;;;;;5111605;28;19924;-50
2022/01/26 03:19:42;;;;;;;;;;;-3.50;99.90;;;;;;5111222;28;19950;-50
2022/01/26 03:30:49;;;;;;;;;;;-3.80;99.90;;;;;;5091036;28;19931;-50
2022/01/26 03:33:24;;;;;;;;;;;-3.60;99.90;;;;;;5091060;28;19970;-50
2022/01/26 03:35:55;;;;;;;;;;;-3.80;99.90;;;;;;5099047;28;19931;-50
2022/01/26 03:38:25;;;;;;;;;;;-3.70;99.90;;;;;;5110969;28;19924;-49
2022/01/26 03:41:09;;;;;;;;;;;-3.60;99.90;;;;;;5110574;28;19932;-50
2022/01/26 03:43:36;;;;;;;;;;;-3.80;99.90;;;;;;5110618;28;20018;-50
2022/01/26 03:46:03;;;;;;;;;;;-3.80;99.90;;;;;;5110569;28;20397;-50
2022/01/26 03:48:30;;;;;;;;;;;-4.00;99.90;;;;;;5112482;28;19978;-50
2022/01/26 03:50:56;;;;;;;;;;;-4.00;99.90;;;;;;5110682;28;19978;-50
2022/01/26 03:53:23;;;;;;;;;;;-4.00;99.90;;;;;;5110786;28;19927;-50
2022/01/26 03:55:50;;;;;;;;;;;-4.10;99.90;;;;;;5106724;28;19981;-50
2022/01/26 03:58:19;;;;;;;;;;;-4.10;99.90;;;;;;5110688;28;19924;-50
2022/01/26 04:00:46;;;;;;;;;;;-4.20;99.90;;;;;;5110598;28;19977;-50
2022/01/26 04:03:13;;;;;;;;;;;-4.20;99.90;;;;;;5107887;28;19957;-50
2022/01/26 04:05:39;;;;;;;;;;;-4.20;99.90;;;;;;5096222;28;19924;-51
2022/01/26 04:08:15;;;;;;;;;;;-4.20;99.90;;;;;;5096813;28;19924;-50
2022/01/26 04:10:52;;;;;;;;;;;-4.20;99.90;;;;;;5096468;28;20389;-50
2022/01/26 04:13:21;;;;;;;;;;;-4.20;99.90;;;;;;5096913;28;19924;-50
2022/01/26 04:15:47;;;;;;;;;;;-4.20;99.90;;;;;;5096861;28;20015;-51
2022/01/26 04:18:20;;;;;;;;;;;-4.20;99.90;;;;;;5096382;28;19924;-50
2022/01/26 04:20:50;;;;;;;;;;;-4.10;99.90;;;;;;5096922;28;19931;-50
2022/01/26 04:23:23;;;;;;;;;;;-4.10;99.90;;;;;;5096469;28;19925;-50
2022/01/26 04:25:51;;;;;;;;;;;-4.00;99.90;;;;;;5096150;28;19931;-50
2022/01/26 04:28:23;;;;;;;;;;;-4.00;99.90;;;;;;5098559;28;19924;-52
2022/01/26 04:30:51;;;;;;;;;;;-3.90;99.90;;;;;;5095303;28;20355;-50
2022/01/26 04:33:18;;;;;;;;;;;-3.90;99.90;;;;;;5096377;28;20289;-50
2022/01/26 04:35:47;;;;;;;;;;;-3.80;99.90;;;;;;5096072;28;19924;-50
2022/01/26 04:38:20;;;;;;;;;;;-3.80;99.90;;;;;;5095741;28;19925;-50
2022/01/26 04:40:58;;;;;;;;;;;-3.60;99.90;;;;;;5096456;28;19924;-50
2022/01/26 04:43:29;;;;;;;;;;;-3.50;99.90;;;;;;5095787;28;19928;-50
2022/01/26 04:45:57;;;;;;;;;;;-3.40;99.90;;;;;;5096365;28;20402;-50
2022/01/26 04:48:25;;;;;;;;;;;-3.20;99.90;;;;;;5096116;28;19988;-50
2022/01/26 04:50:52;;;;;;;;;;;-3.10;99.90;;;;;;5096002;28;19935;-50
2022/01/26 04:53:19;;;;;;;;;;;-3.10;99.90;;;;;;5095696;28;19908;-50
2022/01/26 04:55:46;;;;;;;;;;;-3.10;99.90;;;;;;5095564;28;20372;-50
2022/01/26 04:58:13;;;;;;;;;;;-3.10;99.90;;;;;;5095633;28;19924;-50
2022/01/26 05:00:40;;;;;;;;;;;-3.10;99.90;;;;;;5095347;28;19924;-50
2022/01/26 05:03:11;;;;;;;;;;;-3.10;99.90;;;;;;5095546;28;19928;-50
2022/01/26 05:05:38;;;;;;;;;;;-3.20;99.90;;;;;;5095745;28;19924;-50
2022/01/26 05:08:07;;;;;;;;;;;-3.00;99.90;;;;;;5095586;28;19924;-50
2022/01/26 05:10:36;;;;;;;;;;;-2.90;99.90;;;;;;5095899;28;19928;-50
2022/01/26 05:13:03;;;;;;;;;;;-2.90;99.90;;;;;;5095863;28;19928;-50
2022/01/26 05:15:30;;;;;;;;;;;-2.90;99.90;;;;;;5094164;28;19924;-51
2022/01/26 05:17:57;;;;;;;;;;;-2.80;99.90;;;;;;5095141;28;19924;-50
2022/01/26 05:20:25;;;;;;;;;;;-2.70;99.90;;;;;;5095592;28;19928;-50
2022/01/26 05:22:52;;;;;;;;;;;-2.80;99.90;;;;;;5095080;28;19932;-50
2022/01/26 05:25:20;;;;;;;;;;;-2.80;99.90;;;;;;5094972;28;19924;-50
2022/01/26 05:27:47;;;;;;;;;;;-2.90;99.90;;;;;;5095439;28;19924;-51
2022/01/26 05:30:14;;;;;;;;;;;-2.90;99.90;;;;;;5094919;28;20398;-50
2022/01/26 05:32:41;;;;;;;;;;;-2.90;99.90;;;;;;5095488;28;20011;-50
2022/01/26 05:35:08;;;;;;;;;;;-2.80;99.90;;;;;;5095042;28;19928;-50
2022/01/26 05:37:36;;;;;;;;;;;-2.80;99.90;;;;;;5106008;22;19929;-49
2022/01/26 05:40:03;;;;;;;;;;;-2.70;99.90;;;;;;5071804;28;20486;-50
2022/01/26 05:42:31;;;;;;;;;;;-2.70;99.90;;;;;;5070626;28;19985;-51
2022/01/26 05:45:02;;;;;;;;;;;-2.70;99.90;;;;;;5065563;28;20404;-49
2022/01/26 05:47:31;;;;;;;;;;;-2.70;99.90;;;;;;5081938;28;19928;-49
2022/01/26 05:49:58;;;;;;;;;;;-2.60;99.90;;;;;;5092367;28;19978;-49
2022/01/26 05:52:25;;;;;;;;;;;-2.40;99.90;;;;;;5080608;28;19977;-50
2022/01/26 05:54:53;;;;;;;;;;;-2.50;99.90;;;;;;5072089;28;19928;-52
2022/01/26 05:57:20;;;;;;;;;;;-2.40;99.90;;;;;;5071842;28;19977;-51
2022/01/26 05:59:47;;;;;;;;;;;-2.30;99.90;;;;;;5071825;28;19978;-50
2022/01/26 06:02:13;;;;;;;;;;;-2.20;99.90;;;;;;5071267;28;19924;-50
2022/01/26 06:04:40;;;;;;;;;;;-2.20;99.90;;;;;;5071993;28;19971;-51
2022/01/26 06:07:07;;;;;;;;;;;-2.10;99.90;;;;;;5071299;28;19925;-49
2022/01/26 06:09:34;;;;;;;;;;;-2.10;99.90;;;;;;5071300;28;19970;-51
2022/01/26 06:12:02;;;;;;;;;;;-2.20;99.90;;;;;;5071727;28;19936;-51
2022/01/26 06:14:28;;;;;;;;;;;-2.10;99.90;;;;;;5071686;28;19971;-50
2022/01/26 06:16:55;;;;;;;;;;;-2.10;99.90;;;;;;5072258;28;19970;-49
2022/01/26 06:19:22;;;;;;;;;;;-2.10;99.90;;;;;;5071207;28;20571;-50
2022/01/26 06:21:48;;;;;;;;;;;-2.10;99.90;;;;;;5071447;28;19950;-51
2022/01/26 06:24:15;;;;;;;;;;;-2.10;99.90;;;;;;5071305;28;19928;-50
2022/01/26 06:26:42;;;;;;;;;;;-2.10;99.90;;;;;;5071395;28;20394;-50
2022/01/26 06:29:10;;;;;;;;;;;-2.10;99.90;;;;;;5067803;28;20019;-51
2022/01/26 06:31:40;;;;;;;;;;;-2.10;99.90;;;;;;5071529;28;20366;-51
2022/01/26 06:34:08;;;;;;;;;;;-2.10;99.90;;;;;;5062368;28;20355;-52
2022/01/26 06:36:36;;;;;;;;;;;-2.10;99.90;;;;;;5060991;28;19966;-51
2022/01/26 06:39:02;;;;;;;;;;;-2.10;99.90;;;;;;5071185;28;19978;-49
2022/01/26 06:41:29;;;;;;;;;;;-2.10;99.90;;;;;;5071091;28;20389;-50
2022/01/26 06:44:02;;;;;;;;;;;-2.10;99.90;;;;;;5071164;28;20351;-49
2022/01/26 06:46:40;;;;;;;;;;;-2.10;99.90;;;;;;5073657;28;20301;-48
2022/01/26 06:51:51;;;;;;;;;;;-2.10;99.90;;;;;;5071266;28;20013;-48
2022/01/26 06:54:18;;;;;;;;;;;-2.00;99.90;;;;;;5071286;28;20015;-48
2022/01/26 06:56:46;;;;;;;;;;;-1.80;99.90;;;;;;5071203;28;20390;-48
2022/01/26 06:59:13;;;;;;;;;;;-1.80;99.90;;;;;;5062340;28;19943;-48
2022/01/26 07:01:41;;;;;;;;;;;-1.80;99.90;;;;;;5056503;28;19925;-48
2022/01/26 07:04:08;;;;;;;;;;;-1.80;99.90;;;;;;5051099;28;19929;-48
2022/01/26 07:06:35;;;;;;;;;;;-1.80;99.90;;;;;;5060730;28;19978;-49
2022/01/26 07:09:02;;;;;;;;;;;-1.80;99.90;;;;;;5070589;28;20359;-48
2022/01/26 07:11:29;;;;;;;;;;;-1.70;99.90;;;;;;5070542;28;19940;-49
2022/01/26 07:13:58;;;;;;;;;;;-1.70;99.90;;;;;;5065152;28;20499;-49
2022/01/26 07:21:55;;;;;;;;;;;-1.60;99.90;;;;;;5070471;28;19965;-50
2022/01/26 07:24:22;;;;;;;;;;;-1.70;99.90;;;;;;5073978;28;19978;-48
2022/01/26 07:26:52;;;;;;;;;;;-1.60;99.90;;;;;;5072247;28;19924;-48
2022/01/26 07:29:22;;;;;;;;;;;-1.60;99.90;;;;;;5071065;28;19931;-49
2022/01/26 07:31:49;;;;;;;;;;;-1.60;99.90;;;;;;5071201;28;19924;-48
2022/01/26 07:34:20;;;;;;;;;;;-1.60;99.90;;;;;;5052626;28;20367;-49
2022/01/26 07:36:48;;;;;;;;;;;-1.60;99.90;;;;;;5070026;28;20402;-49
2022/01/26 07:39:18;;;;;;;;;;;-1.60;99.90;;;;;;5092403;28;19928;-48
2022/01/26 07:41:45;;;;;;;;;;;-1.50;99.90;;;;;;5078987;28;20303;-48
2022/01/26 07:44:12;;;;;;;;;;;-1.60;99.90;;;;;;5075058;28;20219;-49
2022/01/26 07:46:39;;;;;;;;;;;-1.50;99.90;;;;;;5074163;28;19924;-50
2022/01/26 07:49:05;;;;;;;;;;;-1.40;99.90;;;;;;5074086;28;20337;-49
2022/01/26 07:51:34;;;;;;;;;;;-1.40;99.90;;;;;;5074309;28;19978;-49
2022/01/26 07:54:00;;;;;;;;;;;-1.40;99.90;;;;;;5090805;28;20400;-48
2022/01/26 07:56:29;;;;;;;;;;;-1.30;99.90;;;;;;5094779;28;19982;-50
2022/01/26 07:58:56;;;;;;;;;;;-1.30;99.90;;;;;;5094580;28;19924;-50
2022/01/26 08:01:23;;;;;;;;;;;-1.20;99.90;;;;;;5094521;28;19924;-49
2022/01/26 08:03:50;;;;;;;;;;;-1.10;99.90;;;;;;5094422;28;19924;-49
2022/01/26 08:06:18;;;;;;;;;;;-1.10;99.90;;;;;;5082797;28;19978;-49
2022/01/26 08:08:46;;;;;;;;;;;-1.00;99.90;;;;;;5069720;28;19932;-50
2022/01/26 08:11:12;;;;;;;;;;;-0.90;99.90;;;;;;5064468;28;19947;-48
2022/01/26 08:13:39;;;;;;;;;;;-0.80;99.90;;;;;;5054174;28;19925;-49
2022/01/26 08:16:06;;;;;;;;;;;-0.70;99.90;;;;;;5062540;28;19924;-48
2022/01/26 08:18:33;;;;;;;;;;;-0.60;99.90;;;;;;5073450;28;20361;-48
2022/01/26 08:21:05;;;;;;;;;;;-0.60;99.90;;;;;;5074093;28;20527;-49
2022/01/26 08:23:32;;;;;;;;;;;-0.60;99.90;;;;;;5074169;28;19956;-49
2022/01/26 08:26:00;;;;;;;;;;;-0.50;99.90;;;;;;5073775;28;19928;-50
2022/01/26 08:28:31;;;;;;;;;;;-0.50;99.90;;;;;;5073632;28;19928;-49
2022/01/26 08:30:58;;;;;;;;;;;-0.40;99.90;;;;;;5073703;28;19936;-49
2022/01/26 08:33:24;;;;;;;;;;;-0.40;99.90;;;;;;5073612;28;19990;-49
2022/01/26 08:35:51;;;;;;;;;;;-0.50;99.90;;;;;;5073065;28;19944;-48
2022/01/26 08:38:21;;;;;;;;;;;-0.50;99.90;;;;;;5073270;28;19928;-49
2022/01/26 08:40:49;;;;;;;;;;;-0.40;99.90;;;;;;5073643;28;19929;-49
2022/01/26 08:43:20;;;;;;;;;;;-0.30;99.90;;;;;;5073460;28;19946;-49
2022/01/26 08:45:47;;;;;;;;;;;-0.20;99.90;;;;;;5073071;28;19925;-49
2022/01/26 08:48:18;;;;;;;;;;;-0.30;99.90;;;;;;5073101;28;20471;-48
2022/01/26 08:50:45;;;;;;;;;;;-0.30;99.90;;;;;;5073328;28;20019;-49
2022/01/26 08:53:11;;;;;;;;;;;-0.20;99.90;;;;;;5073283;28;19970;-50
2022/01/26 08:55:38;;;;;;;;;;;-0.20;99.90;;;;;;5073103;28;19981;-49
2022/01/26 08:58:05;;;;;;;;;;;-0.10;99.90;;;;;;5073100;28;20309;-49
2022/01/26 09:00:35;;;;;;;;;;;-0.30;99.90;;;;;;5073073;28;19924;-50
2022/01/26 09:03:01;;;;;;;;;;;-0.50;99.90;;;;;;5073304;28;19932;-50
2022/01/26 09:05:28;;;;;;;;;;;-0.20;99.90;;;;;;5072899;28;19928;-48
2022/01/26 09:07:57;;;;;;;;;;;-0.30;99.90;;;;;;5072672;28;19978;-49
2022/01/26 09:10:26;;;;;;;;;;;-0.30;99.90;;;;;;5073048;28;19924;-50
2022/01/26 09:12:53;;;;;;;;;;;-0.20;99.90;;;;;;5072945;28;20007;-49
2022/01/26 09:15:26;;;;;;;;;;;-0.10;99.90;;;;;;5072590;28;19997;-50
2022/01/26 09:17:54;;;;;;;;;;;-0.20;99.90;;;;;;5072597;28;20314;-49
2022/01/26 09:20:21;;;;;;;;;;;-0.10;99.90;;;;;;5072656;28;19924;-47
2022/01/26 09:22:48;;;;;;;;;;;-0.20;99.90;;;;;;5067941;28;19933;-48
2022/01/26 09:25:15;;;;;;;;;;;-0.10;99.90;;;;;;5064673;28;19925;-46
2022/01/26 09:27:41;;;;;;;;;;;0.10;99.90;;;;;;5067175;28;19985;-49
2022/01/26 09:30:09;;;;;;;;;;;0.30;99.90;;;;;;5070670;28;19935;-49
2022/01/26 09:32:36;;;;;;;;;;;0.30;99.90;;;;;;5066282;28;20310;-50
2022/01/26 09:35:05;;;;;;;;;;;0.20;99.90;;;;;;5071768;28;20283;-49
2022/01/26 09:37:31;;;;;;;;;;;0.30;99.90;;;;;;5065613;28;20005;-48
2022/01/26 09:39:58;;;;;;;;;;;0.40;99.90;;;;;;5070555;28;19928;-49
2022/01/26 09:42:25;;;;;;;;;;;0.20;99.90;;;;;;5064927;28;19928;-49
2022/01/26 09:44:52;;;;;;;;;;;0.30;99.90;;;;;;5070139;28;19925;-50
2022/01/26 09:47:21;;;;;;;;;;;0.40;99.90;;;;;;5071995;28;19928;-49
2022/01/26 09:49:50;;;;;;;;;;;0.40;99.90;;;;;;5071917;28;19939;-50
2022/01/26 09:52:22;;;;;;;;;;;0.30;99.90;;;;;;5072188;28;19924;-50
2022/01/26 09:54:49;;;;;;;;;;;0.20;99.90;;;;;;5072078;28;19928;-50
2022/01/26 09:57:16;;;;;;;;;;;0.10;99.90;;;;;;5072064;28;19931;-50
2022/01/26 09:59:43;;;;;;;;;;;-0.10;99.90;;;;;;5069130;28;19932;-51
2022/01/26 10:02:20;;;;;;;;;;;0.00;99.90;;;;;;5069422;28;20386;-52
2022/01/26 10:04:47;;;;;;;;;;;0.20;99.90;;;;;;5069335;28;19928;-50
2022/01/26 10:07:21;;;;;;;;;;;0.20;99.90;;;;;;5066919;28;19977;-52
2022/01/26 10:10:04;;;;;;;;;;;0.30;99.90;;;;;;5061858;28;19933;-52
2022/01/26 10:15:28;;;;;;;;;;;0.60;99.90;;;;;;5061972;28;20294;-48
2022/01/26 10:18:04;;;;;;;;;;;0.60;99.90;;;;;;5063562;28;19928;-50
2022/01/26 10:20:39;;;;;;;;;;;0.60;99.90;;;;;;5066915;28;20007;-48
2022/01/26 10:23:06;;;;;;;;;;;0.50;99.90;;;;;;5071556;28;19931;-49
2022/01/26 10:25:35;;;;;;;;;;;0.50;99.90;;;;;;5071186;28;20011;-49
2022/01/26 10:28:02;;;;;;;;;;;0.50;99.90;;;;;;5071107;28;19935;-48
2022/01/26 10:30:29;;;;;;;;;;;0.50;99.90;;;;;;5071567;28;19931;-51
2022/01/26 10:32:55;;;;;;;;;;;0.50;99.90;;;;;;5058617;28;19929;-49
2022/01/26 10:35:22;;;;;;;;;;;0.70;99.90;;;;;;5068588;28;19928;-51
2022/01/26 10:37:50;;;;;;;;;;;0.60;99.90;;;;;;5070492;28;19947;-53
2022/01/26 10:40:20;;;;;;;;;;;0.70;99.90;;;;;;5070571;28;19985;-49
2022/01/26 10:42:55;;;;;;;;;;;0.60;99.90;;;;;;5070597;28;19964;-49
2022/01/26 10:45:32;;;;;;;;;;;0.50;99.90;;;;;;5070925;28;19933;-48
2022/01/26 10:48:08;;;;;;;;;;;0.50;99.90;;;;;;5070399;28;19928;-49
2022/01/26 10:50:48;;;;;;;;;;;0.60;99.90;;;;;;5070519;28;20004;-50
2022/01/26 10:53:18;;;;;;;;;;;0.70;99.90;;;;;;5070898;28;19950;-50
2022/01/26 10:55:45;;;;;;;;;;;1.00;99.90;;;;;;5071193;28;19925;-52
2022/01/26 10:58:17;;;;;;;;;;;1.20;99.90;;;;;;5070039;28;19925;-49
2022/01/26 11:00:44;;;;;;;;;;;1.20;99.90;;;;;;5070419;28;19925;-49
2022/01/26 11:03:11;;;;;;;;;;;1.30;99.90;;;;;;5070841;28;19929;-50
2022/01/26 11:05:38;;;;;;;;;;;1.40;99.90;;;;;;5070483;28;20015;-49
2022/01/26 11:08:09;;;;;;;;;;;1.50;99.90;;;;;;5070433;28;19971;-51
2022/01/26 11:10:37;;;;;;;;;;;1.60;99.90;;;;;;5070806;28;20406;-49
2022/01/26 11:13:05;;;;;;;;;;;1.80;99.90;;;;;;5070654;28;20348;-48
2022/01/26 11:15:34;;;;;;;;;;;2.00;99.90;;;;;;5074048;28;19925;-50
2022/01/26 11:18:07;;;;;;;;;;;1.90;99.90;;;;;;5073806;28;20398;-49
2022/01/26 11:20:45;;;;;;;;;;;1.90;99.90;;;;;;5074439;28;19924;-49
2022/01/26 11:23:18;;;;;;;;;;;1.60;99.90;;;;;;5074752;28;19957;-49
2022/01/26 11:25:45;;;;;;;;;;;1.60;99.90;;;;;;5071327;28;19986;-49
2022/01/26 11:28:19;;;;;;;;;;;1.80;99.90;;;;;;5072707;28;19933;-49
2022/01/26 11:30:47;;;;;;;;;;;1.40;99.90;;;;;;5073180;28;19954;-48
2022/01/26 11:33:16;;;;;;;;;;;1.70;99.90;;;;;;5072060;28;20485;-49
2022/01/26 11:35:46;;;;;;;;;;;2.00;99.90;;;;;;5072744;28;19944;-49
2022/01/26 11:38:39;;;;;;;;;;;2.00;99.90;;;;;;5096775;22;20024;-51
2022/01/26 11:47:01;;;;;;;;;;;2.40;99.90;;;;;;5001632;28;19956;-52
2022/01/26 11:49:28;;;;;;;;;;;2.30;99.90;;;;;;5048914;28;19993;-51
2022/01/26 11:51:57;;;;;;;;;;;2.20;99.90;;;;;;5076231;28;19928;-52
2022/01/26 11:54:25;;;;;;;;;;;2.30;99.90;;;;;;5076304;28;19978;-51
2022/01/26 11:57:02;;;;;;;;;;;2.70;99.90;;;;;;5075735;28;19924;-52
2022/01/26 11:59:32;;;;;;;;;;;2.90;99.90;;;;;;5075557;28;19967;-52
2022/01/26 12:02:03;;;;;;;;;;;3.20;99.90;;;;;;5056592;28;19932;-52
2022/01/26 12:04:33;;;;;;;;;;;3.30;99.90;;;;;;5065699;28;19924;-51
2022/01/26 12:07:09;;;;;;;;;;;3.60;99.90;;;;;;5068341;28;19924;-52
2022/01/26 12:09:39;;;;;;;;;;;3.40;99.90;;;;;;5067680;28;19942;-52
2022/01/26 12:12:06;;;;;;;;;;;2.80;99.90;;;;;;5066595;28;19982;-52
2022/01/26 12:14:34;;;;;;;;;;;2.90;99.90;;;;;;5067033;28;19935;-52
2022/01/26 12:17:09;;;;;;;;;;;2.90;99.90;;;;;;5072563;28;20018;-52
2022/01/26 12:19:47;;;;;;;;;;;2.70;99.90;;;;;;5073760;28;19972;-52
2022/01/26 12:36:35;;;;;;;;;;;3.10;99.90;;;;;;4973065;28;19941;-51
2022/01/26 12:39:04;;;;;;;;;;;3.00;99.90;;;;;;5042843;28;19925;-51
2022/01/26 12:41:33;;;;;;;;;;;3.00;99.90;;;;;;5073479;28;19928;-51
2022/01/26 12:44:01;;;;;;;;;;;3.00;99.90;;;;;;5074675;28;20350;-52
2022/01/26 12:46:28;;;;;;;;;;;3.20;99.90;;;;;;5072818;28;19929;-51
2022/01/26 12:48:57;;;;;;;;;;;3.30;99.90;;;;;;5072299;28;19928;-51
2022/01/26 12:51:25;;;;;;;;;;;3.40;99.90;;;;;;5073542;28;19967;-51
2022/01/26 12:53:53;;;;;;;;;;;3.50;99.90;;;;;;5071312;28;20336;-51
2022/01/26 12:56:20;;;;;;;;;;;3.40;99.90;;;;;;5071304;28;19924;-51
2022/01/26 12:58:46;;;;;;;;;;;3.40;99.90;;;;;;5073348;28;19986;-51
2022/01/26 13:01:17;;;;;;;;;;;3.40;99.90;;;;;;5073789;28;19928;-51
2022/01/26 13:03:44;;;;;;;;;;;3.10;99.90;;;;;;5074727;28;19924;-52
2022/01/26 13:06:14;;;;;;;;;;;2.60;99.90;;;;;;5073131;28;19969;-51
2022/01/26 13:08:42;;;;;;;;;;;2.30;99.90;;;;;;5073869;28;19928;-51
2022/01/26 13:11:09;;;;;;;;;;;2.20;99.90;;;;;;5073311;28;19924;-51
2022/01/26 13:13:36;;;;;;;;;;;2.00;99.90;;;;;;5072036;28;19946;-50
2022/01/26 13:16:14;;;;;;;;;;;1.80;99.90;;;;;;5071624;28;21882;-50
2022/01/26 13:19:06;;;;;;;;;;;1.70;99.90;;;;;;5074533;28;19936;-50
2022/01/26 13:21:52;;;;;;;;;;;1.90;99.90;;;;;;5071060;28;19924;-50
2022/01/26 13:24:30;;;;;;;;;;;2.00;99.90;;;;;;5074785;28;19972;-50
2022/01/26 13:27:06;;;;;;;;;;;2.10;99.90;;;;;;5073054;28;19925;-50
2022/01/26 13:29:44;;;;;;;;;;;2.20;99.90;;;;;;5069218;28;20386;-50
2022/01/26 13:35:17;;;;;;;;;;;2.40;99.90;;;;;;5065867;28;19976;-51
2022/01/26 13:38:01;;;;;;;;;;;2.40;99.90;;;;;;5064461;28;20294;-50
2022/01/26 13:40:42;;;;;;;;;;;2.50;99.90;;;;;;5064817;28;19935;-51
2022/01/26 13:43:48;;;;;;;;;;;2.40;99.90;;;;;;5065499;28;19924;-51
2022/01/26 13:49:32;;;;;;;;;;;2.10;99.90;;;;;;5064294;28;19925;-52
2022/01/26 13:52:06;;;;;;;;;;;2.00;99.90;;;;;;5064792;28;20417;-52
2022/01/26 14:00:22;;;;;;;;;;;2.40;99.90;;;;;;5049152;28;19956;-52
2022/01/26 14:02:54;;;;;;;;;;;2.60;99.90;;;;;;5064625;28;19939;-52
2022/01/26 14:05:20;;;;;;;;;;;2.60;99.90;;;;;;5065920;28;19999;-52
2022/01/26 14:07:47;;;;;;;;;;;2.30;99.90;;;;;;5065690;28;19981;-52
2022/01/26 14:10:15;;;;;;;;;;;2.30;99.90;;;;;;5064071;28;19978;-51
2022/01/26 14:12:46;;;;;;;;;;;2.10;99.90;;;;;;5066578;28;20353;-51
2022/01/26 14:15:19;;;;;;;;;;;2.20;99.90;;;;;;5065298;28;19925;-51
2022/01/26 14:18:00;;;;;;;;;;;2.10;99.90;;;;;;5065688;28;20039;-52
2022/01/26 14:20:50;;;;;;;;;;;1.90;99.90;;;;;;5064670;28;19929;-51
2022/01/26 14:26:03;;;;;;;;;;;1.90;99.90;;;;;;5027885;28;19920;-51
2022/01/26 14:28:34;;;;;;;;;;;1.90;99.90;;;;;;5072735;28;20024;-52
2022/01/26 14:31:10;;;;;;;;;;;1.90;99.90;;;;;;5070753;28;19980;-52
2022/01/26 14:36:40;;;;;;;;;;;1.70;99.90;;;;;;5060335;28;19925;-52
2022/01/26 14:55:54;;;;;;;;;;;1.40;99.90;;;;;;5069428;28;19932;-51
2022/01/26 15:10:09;;;;;;;;;;;1.10;99.90;;;;;;5065271;28;19927;-51
2022/01/26 15:34:59;;;;;;;;;;;0.70;99.90;;;;;;5063012;28;19935;-51
2022/01/26 15:40:24;;;;;;;;;;;0.80;99.90;;;;;;5063565;28;20440;-51
2022/01/26 15:43:10;;;;;;;;;;;0.70;99.90;;;;;;5063101;28;19967;-50
2022/01/26 15:48:50;;;;;;;;;;;0.60;99.90;;;;;;5064285;28;20351;-51
2022/01/26 15:51:43;;;;;;;;;;;0.60;99.90;;;;;;5064585;28;20007;-50
2022/01/26 16:07:55;;;;;;;;;;;0.30;99.90;;;;;;5034427;28;20302;-51
2022/01/26 16:21:28;;;;;;;;;;;0.20;99.90;;;;;;5003475;28;19928;-50
2022/01/26 16:27:12;;;;;;;;;;;0.20;99.90;;;;;;5069425;28;20073;-51
2022/01/26 16:35:20;;;;;;;;;;;0.10;99.90;;;;;;5079348;28;19927;-51
2022/01/26 16:37:59;;;;;;;;;;;0.10;99.90;;;;;;5066937;28;19924;-50
2022/01/26 17:55:39;;;;;;;;;;;-1.40;99.90;;;;;;5079474;28;19982;-49
2022/01/26 18:17:45;;;;;;;;;;;-1.50;99.90;;;;;;5085159;28;19946;-50
2022/01/26 18:26:06;;;;;;;;;;;-1.50;99.90;;;;;;5085026;28;19951;-51
2022/01/26 18:40:27;;;;;;;;;;;-1.60;99.90;;;;;;5090906;28;19940;-49
2022/01/26 18:51:02;;;;;;;;;;;-2.00;99.90;;;;;;5077309;28;20340;-51
2022/01/26 18:53:29;;;;;;;;;;;-2.00;99.90;;;;;;5089954;28;20275;-50
2022/01/26 18:55:56;;;;;;;;;;;-2.00;99.90;;;;;;5089890;28;20286;-49
2022/01/26 18:58:23;;;;;;;;;;;-2.00;99.90;;;;;;5083998;28;19932;-50
2022/01/26 19:00:50;;;;;;;;;;;-2.00;99.90;;;;;;5089956;28;19924;-50
2022/01/26 19:03:16;;;;;;;;;;;-2.00;99.90;;;;;;5089526;28;19929;-51
2022/01/26 19:05:44;;;;;;;;;;;-2.00;99.90;;;;;;5081785;28;19927;-51
2022/01/26 19:08:13;;;;;;;;;;;-1.90;99.90;;;;;;5091482;28;19924;-50
2022/01/26 19:10:40;;;;;;;;;;;-1.90;99.90;;;;;;5091632;28;20350;-49
2022/01/26 19:13:07;;;;;;;;;;;-1.90;99.90;;;;;;5091555;28;19928;-49
2022/01/26 19:15:34;;;;;;;;;;;-1.90;99.90;;;;;;5072370;28;19947;-50
2022/01/26 19:18:06;;;;;;;;;;;-1.90;99.90;;;;;;5071046;28;19924;-50
2022/01/26 19:20:52;;;;;;;;;;;-2.00;99.90;;;;;;5071342;28;19930;-50
2022/01/26 19:26:12;;;;;;;;;;;-2.00;99.90;;;;;;5065789;28;19925;-50
2022/01/26 19:28:42;;;;;;;;;;;-1.90;99.90;;;;;;5071001;28;20023;-49
2022/01/26 19:45:11;;;;;;;;;;;-1.80;99.90;;;;;;5088323;28;19920;-49
2022/01/26 19:53:04;;;;;;;;;;;-2.00;99.90;;;;;;5095074;28;19926;-50
2022/01/26 19:55:32;;;;;;;;;;;-2.10;99.90;;;;;;5093280;28;19978;-51
2022/01/26 19:58:01;;;;;;;;;;;-2.00;99.90;;;;;;5094555;28;19931;-49
2022/01/26 20:00:28;;;;;;;;;;;-2.10;99.90;;;;;;5094950;28;20019;-50
2022/01/26 20:02:54;;;;;;;;;;;-2.20;99.90;;;;;;5094780;28;19930;-51
2022/01/26 20:05:21;;;;;;;;;;;-2.20;99.90;;;;;;5092539;28;20282;-49
2022/01/26 20:07:52;;;;;;;;;;;-2.10;99.90;;;;;;5094584;28;20023;-51
2022/01/26 20:10:25;;;;;;;;;;;-2.20;99.90;;;;;;5090288;28;19925;-51
2022/01/26 20:13:01;;;;;;;;;;;-2.20;99.90;;;;;;5092932;28;19928;-51
2022/01/26 20:15:28;;;;;;;;;;;-2.20;99.90;;;;;;5089975;28;19928;-50
2022/01/26 20:17:55;;;;;;;;;;;-2.20;99.90;;;;;;5093671;28;19924;-49
2022/01/26 20:20:22;;;;;;;;;;;-2.20;99.90;;;;;;5074538;28;20045;-50
2022/01/26 20:22:49;;;;;;;;;;;-2.20;99.90;;;;;;5075185;28;20092;-50